Time;durP1;ratioP1;P1;durP2;ratioP2;P2;SDS_P1;SDS_P2;PMS_P1;PMS_P2;Temp;Humidity;BMP_temperature;BMP_pressure;BME280_temperature;BME280_humidity;BME280_pressure;Samples;Min_cycle;Max_cycle;Signal;HPM_P1;HPM_P2
2022/08/24 00:00:13;;;;;;;;;;;16.60;99.90;;;;;;4195100;28;19993;-80
2022/08/24 00:02:16;;;;;;;;;;;16.70;99.90;;;;;;4177694;28;20027;-80
2022/08/24 00:04:18;;;;;;;;;;;16.70;99.90;;;;;;4195188;28;19929;-80
2022/08/24 00:06:21;;;;;;;;;;;16.80;99.90;;;;;;4194251;28;20015;-80
2022/08/24 00:08:23;;;;;;;;;;;16.70;99.90;;;;;;4177751;28;19972;-80
2022/08/24 00:10:25;;;;;;;;;;;16.70;99.90;;;;;;4195038;28;19967;-80
2022/08/24 00:12:27;;;;;;;;;;;16.80;99.90;;;;;;4195147;28;20324;-80
2022/08/24 00:14:29;;;;;;;;;;;16.80;99.90;;;;;;4195285;28;19975;-80
2022/08/24 00:16:31;;;;;;;;;;;16.70;99.90;;;;;;4160997;28;20017;-80
2022/08/24 00:18:34;;;;;;;;;;;16.60;99.90;;;;;;4195239;28;19925;-80
2022/08/24 00:20:36;;;;;;;;;;;16.50;99.90;;;;;;4197112;28;20343;-80
2022/08/24 00:22:40;;;;;;;;;;;16.40;99.90;;;;;;4180832;28;20299;-80
2022/08/24 00:24:43;;;;;;;;;;;16.40;99.90;;;;;;4213281;28;20449;-80
2022/08/24 00:26:45;;;;;;;;;;;16.20;99.90;;;;;;4198263;28;19973;-80
2022/08/24 00:28:47;;;;;;;;;;;16.20;99.90;;;;;;4198331;28;19959;-80
2022/08/24 00:30:49;;;;;;;;;;;16.10;99.90;;;;;;4198362;28;19960;-80
2022/08/24 00:32:53;;;;;;;;;;;16.10;99.90;;;;;;4213477;28;19973;-80
2022/08/24 00:34:54;;;;;;;;;;;16.30;99.90;;;;;;4163475;28;20076;-80
2022/08/24 00:36:59;;;;;;;;;;;16.30;99.90;;;;;;4180130;28;19933;-80
2022/08/24 00:39:02;;;;;;;;;;;16.30;99.90;;;;;;4185097;28;20012;-80
2022/08/24 00:41:04;;;;;;;;;;;16.30;99.90;;;;;;4165884;28;19929;-80
2022/08/24 00:43:07;;;;;;;;;;;16.30;99.90;;;;;;4180368;28;20368;-80
2022/08/24 00:45:11;;;;;;;;;;;16.30;99.90;;;;;;4197734;28;19925;-80
2022/08/24 00:47:19;;;;;;;;;;;16.30;99.90;;;;;;4180305;28;19964;-80
2022/08/24 00:49:21;;;;;;;;;;;16.30;99.90;;;;;;4196906;28;19983;-80
2022/08/24 00:51:26;;;;;;;;;;;16.30;99.90;;;;;;4197762;28;20303;-80
2022/08/24 00:53:34;;;;;;;;;;;16.10;99.90;;;;;;4197867;28;20024;-80
2022/08/24 00:55:39;;;;;;;;;;;16.10;99.90;;;;;;4163778;28;19994;-80
2022/08/24 00:57:43;;;;;;;;;;;16.10;99.90;;;;;;4189379;28;19964;-80
2022/08/24 00:59:54;;;;;;;;;;;16.20;99.90;;;;;;4180261;28;19964;-80
2022/08/24 01:01:56;;;;;;;;;;;16.20;99.90;;;;;;4163230;28;20397;-80
2022/08/24 01:03:59;;;;;;;;;;;16.20;99.90;;;;;;4187178;28;19970;-80
2022/08/24 01:06:00;;;;;;;;;;;16.20;99.90;;;;;;4197569;28;20311;-80
2022/08/24 01:08:04;;;;;;;;;;;16.20;99.90;;;;;;4197706;28;19928;-80
2022/08/24 01:10:11;;;;;;;;;;;16.10;99.90;;;;;;4197498;28;19924;-80
2022/08/24 01:12:13;;;;;;;;;;;16.10;99.90;;;;;;4196308;28;19924;-80
2022/08/24 01:14:19;;;;;;;;;;;16.10;99.90;;;;;;4197466;28;20712;-80
2022/08/24 01:18:48;;;;;;;;;;;16.10;99.90;;;;;;4197334;28;19925;-80
2022/08/24 01:20:59;;;;;;;;;;;16.10;99.90;;;;;;4179849;28;19931;-80
2022/08/24 01:23:19;;;;;;;;;;;16.00;99.90;;;;;;4197232;28;20384;-80
2022/08/24 01:25:24;;;;;;;;;;;16.00;99.90;;;;;;4197536;28;20019;-80
2022/08/24 01:27:26;;;;;;;;;;;16.00;99.90;;;;;;4180751;28;19964;-80
2022/08/24 01:29:30;;;;;;;;;;;16.00;99.90;;;;;;4187891;28;19924;-80
2022/08/24 01:31:33;;;;;;;;;;;16.10;99.90;;;;;;4179129;28;19929;-80
2022/08/24 01:33:35;;;;;;;;;;;16.00;99.90;;;;;;4197005;28;20278;-80
2022/08/24 01:35:38;;;;;;;;;;;16.00;99.90;;;;;;4196562;28;20411;-80
2022/08/24 01:37:40;;;;;;;;;;;16.00;99.90;;;;;;4197411;28;20373;-80
2022/08/24 01:39:46;;;;;;;;;;;16.10;99.90;;;;;;4179462;28;19995;-80
2022/08/24 01:41:48;;;;;;;;;;;16.10;99.90;;;;;;4196858;28;19928;-80
2022/08/24 01:43:51;;;;;;;;;;;16.00;99.90;;;;;;4179605;28;19936;-81
2022/08/24 01:45:53;;;;;;;;;;;16.00;99.90;;;;;;4196737;28;19925;-80
2022/08/24 01:47:57;;;;;;;;;;;16.00;99.90;;;;;;4178918;28;20032;-80
2022/08/24 01:50:00;;;;;;;;;;;16.10;99.90;;;;;;4179211;28;19929;-80
2022/08/24 01:52:03;;;;;;;;;;;16.10;99.90;;;;;;4179155;28;19929;-80
2022/08/24 01:54:06;;;;;;;;;;;16.00;99.90;;;;;;4179371;28;20373;-80
2022/08/24 01:56:07;;;;;;;;;;;16.00;99.90;;;;;;4196729;28;20039;-80
2022/08/24 01:58:09;;;;;;;;;;;16.00;99.90;;;;;;4179166;28;20308;-80
2022/08/24 02:00:15;;;;;;;;;;;15.90;99.90;;;;;;4196995;28;20044;-80
2022/08/24 02:02:28;;;;;;;;;;;15.80;99.90;;;;;;4195797;28;20457;-80
2022/08/24 02:04:32;;;;;;;;;;;15.80;99.90;;;;;;4196130;28;19924;-80
2022/08/24 02:06:34;;;;;;;;;;;15.90;99.90;;;;;;4179067;28;19925;-80
2022/08/24 02:08:37;;;;;;;;;;;15.90;99.90;;;;;;4179056;28;19928;-80
2022/08/24 02:10:38;;;;;;;;;;;15.80;99.90;;;;;;4196317;28;19942;-80
2022/08/24 02:12:42;;;;;;;;;;;15.70;99.90;;;;;;4179032;28;19984;-80
2022/08/24 02:14:45;;;;;;;;;;;15.70;99.90;;;;;;4178634;28;19960;-80
2022/08/24 02:16:47;;;;;;;;;;;15.70;99.90;;;;;;4162127;28;19952;-80
2022/08/24 02:18:50;;;;;;;;;;;15.70;99.90;;;;;;4196484;28;20284;-81
2022/08/24 02:20:53;;;;;;;;;;;15.60;99.90;;;;;;4196501;28;20368;-80
2022/08/24 02:22:55;;;;;;;;;;;15.60;99.90;;;;;;4196347;28;19932;-80
2022/08/24 02:24:57;;;;;;;;;;;15.50;99.90;;;;;;4178541;28;19936;-80
2022/08/24 02:26:59;;;;;;;;;;;15.50;99.90;;;;;;4178702;28;19936;-80
2022/08/24 02:29:01;;;;;;;;;;;15.50;99.90;;;;;;4211479;28;19960;-80
2022/08/24 02:31:06;;;;;;;;;;;15.40;99.90;;;;;;4196278;28;19928;-80
2022/08/24 02:33:09;;;;;;;;;;;15.40;99.90;;;;;;4211395;28;20345;-80
2022/08/24 02:35:11;;;;;;;;;;;15.40;99.90;;;;;;4178833;28;19929;-80
2022/08/24 02:37:13;;;;;;;;;;;15.40;99.90;;;;;;4178374;28;20031;-80
2022/08/24 02:39:15;;;;;;;;;;;15.40;99.90;;;;;;4196013;28;19929;-80
2022/08/24 02:41:17;;;;;;;;;;;15.40;99.90;;;;;;4196421;28;19925;-80
2022/08/24 02:43:19;;;;;;;;;;;15.40;99.90;;;;;;4195264;28;20026;-80
2022/08/24 02:45:21;;;;;;;;;;;15.40;99.90;;;;;;4161778;28;19932;-80
2022/08/24 02:47:23;;;;;;;;;;;15.30;99.90;;;;;;4178052;28;19930;-80
2022/08/24 02:49:39;;;;;;;;;;;15.40;99.90;;;;;;4163665;28;19935;-80
2022/08/24 02:51:43;;;;;;;;;;;15.40;99.90;;;;;;4178113;28;19924;-81
2022/08/24 02:53:46;;;;;;;;;;;15.40;99.90;;;;;;4195857;28;19990;-80
2022/08/24 02:55:49;;;;;;;;;;;15.50;99.90;;;;;;4195737;28;19960;-80
2022/08/24 02:57:51;;;;;;;;;;;15.30;99.90;;;;;;4178328;28;19976;-80
2022/08/24 02:59:53;;;;;;;;;;;15.30;99.90;;;;;;4178019;28;19925;-80
2022/08/24 03:01:55;;;;;;;;;;;15.30;99.90;;;;;;4195798;28;20320;-80
2022/08/24 03:03:57;;;;;;;;;;;15.20;99.90;;;;;;4211434;28;19928;-80
2022/08/24 03:05:59;;;;;;;;;;;15.10;99.90;;;;;;4195546;28;20356;-80
2022/08/24 03:08:01;;;;;;;;;;;15.20;99.90;;;;;;4195702;28;20407;-80
2022/08/24 03:10:03;;;;;;;;;;;15.30;99.90;;;;;;4194417;28;20012;-80
2022/08/24 03:12:05;;;;;;;;;;;15.30;99.90;;;;;;4177894;28;19964;-80
2022/08/24 03:14:07;;;;;;;;;;;15.30;99.90;;;;;;4195682;28;19925;-80
2022/08/24 03:16:11;;;;;;;;;;;15.20;99.90;;;;;;4195799;28;19972;-81
2022/08/24 03:18:13;;;;;;;;;;;15.20;99.90;;;;;;4195607;28;19924;-80
2022/08/24 03:20:17;;;;;;;;;;;15.20;99.90;;;;;;4195642;28;19928;-80
2022/08/24 03:22:18;;;;;;;;;;;15.30;99.90;;;;;;4195678;28;19928;-80
2022/08/24 03:24:20;;;;;;;;;;;15.30;99.90;;;;;;4194843;28;19932;-80
2022/08/24 03:26:22;;;;;;;;;;;15.30;99.90;;;;;;4177712;28;19925;-80
2022/08/24 03:28:25;;;;;;;;;;;15.30;99.90;;;;;;4177790;28;20449;-80
2022/08/24 03:30:27;;;;;;;;;;;15.40;99.90;;;;;;4195544;28;20019;-80
2022/08/24 03:32:29;;;;;;;;;;;15.30;99.90;;;;;;4195200;28;19935;-80
2022/08/24 03:34:31;;;;;;;;;;;15.40;99.90;;;;;;4177710;28;20612;-80
2022/08/24 03:36:33;;;;;;;;;;;15.30;99.90;;;;;;4195215;28;19947;-80
2022/08/24 03:38:35;;;;;;;;;;;15.30;99.90;;;;;;4195600;28;19979;-80
2022/08/24 03:40:37;;;;;;;;;;;15.40;99.90;;;;;;4195544;28;19928;-80
2022/08/24 03:42:39;;;;;;;;;;;15.40;99.90;;;;;;4195179;28;19929;-80
2022/08/24 03:44:41;;;;;;;;;;;15.30;99.90;;;;;;4195418;28;20392;-80
2022/08/24 03:46:44;;;;;;;;;;;15.40;99.90;;;;;;4195149;28;19928;-80
2022/08/24 03:48:47;;;;;;;;;;;15.40;99.90;;;;;;4195522;28;20316;-80
2022/08/24 03:50:49;;;;;;;;;;;15.40;99.90;;;;;;4195459;28;19964;-80
2022/08/24 03:52:51;;;;;;;;;;;15.50;99.90;;;;;;4193954;28;19939;-80
2022/08/24 03:54:53;;;;;;;;;;;15.60;99.90;;;;;;4178363;28;20408;-80
2022/08/24 03:56:55;;;;;;;;;;;15.70;99.90;;;;;;4180932;28;19964;-81
2022/08/24 03:58:57;;;;;;;;;;;15.50;99.90;;;;;;4180887;28;19956;-80
2022/08/24 04:01:00;;;;;;;;;;;15.50;99.90;;;;;;4198931;28;20048;-80
2022/08/24 04:03:02;;;;;;;;;;;15.50;99.90;;;;;;4198568;28;19928;-80
2022/08/24 04:05:06;;;;;;;;;;;15.40;99.90;;;;;;4180541;28;20051;-80
2022/08/24 04:07:08;;;;;;;;;;;15.20;99.90;;;;;;4198835;28;19967;-80
2022/08/24 04:09:10;;;;;;;;;;;15.10;99.90;;;;;;4198236;28;20002;-80
2022/08/24 04:11:14;;;;;;;;;;;15.20;99.90;;;;;;4197612;28;20370;-80
2022/08/24 04:13:18;;;;;;;;;;;15.20;99.90;;;;;;4147997;28;19926;-80
2022/08/24 04:15:19;;;;;;;;;;;15.20;99.90;;;;;;4187800;28;19971;-80
2022/08/24 04:17:21;;;;;;;;;;;15.30;99.90;;;;;;4198953;28;19934;-80
2022/08/24 04:19:24;;;;;;;;;;;15.30;99.90;;;;;;4180073;28;19925;-80
2022/08/24 04:21:31;;;;;;;;;;;15.30;99.90;;;;;;4198284;28;20451;-79
2022/08/24 04:23:33;;;;;;;;;;;15.50;99.90;;;;;;4180595;28;19924;-80
2022/08/24 04:25:48;;;;;;;;;;;15.80;99.90;;;;;;4194449;28;20368;-80
2022/08/24 04:27:50;;;;;;;;;;;16.00;99.90;;;;;;4206428;28;20308;-80
2022/08/24 04:29:52;;;;;;;;;;;16.00;99.90;;;;;;4180298;28;20408;-80
2022/08/24 04:31:54;;;;;;;;;;;15.90;99.90;;;;;;4197554;28;19974;-80
2022/08/24 04:33:56;;;;;;;;;;;15.80;99.90;;;;;;4163618;28;19933;-80
2022/08/24 04:35:58;;;;;;;;;;;15.70;99.90;;;;;;4198229;28;20015;-80
2022/08/24 04:38:00;;;;;;;;;;;15.70;99.90;;;;;;4197946;28;20031;-80
2022/08/24 04:40:03;;;;;;;;;;;15.60;99.90;;;;;;4213513;28;19928;-80
2022/08/24 04:42:05;;;;;;;;;;;15.70;99.90;;;;;;4198079;28;20396;-80
2022/08/24 04:44:07;;;;;;;;;;;15.70;99.90;;;;;;4194613;28;20346;-80
2022/08/24 04:46:09;;;;;;;;;;;15.90;99.90;;;;;;4197361;28;20184;-80
2022/08/24 04:48:12;;;;;;;;;;;15.90;99.90;;;;;;4196054;28;19928;-80
2022/08/24 04:50:13;;;;;;;;;;;15.70;99.90;;;;;;4211566;28;20400;-80
2022/08/24 04:52:15;;;;;;;;;;;15.60;99.90;;;;;;4196636;28;19931;-80
2022/08/24 04:54:17;;;;;;;;;;;15.50;99.90;;;;;;4162645;28;19925;-80
2022/08/24 04:56:22;;;;;;;;;;;15.50;99.90;;;;;;4163436;28;19999;-80
2022/08/24 04:58:24;;;;;;;;;;;15.50;99.90;;;;;;4196252;28;19931;-80
2022/08/24 05:00:27;;;;;;;;;;;15.70;99.90;;;;;;4179905;28;19971;-80
2022/08/24 05:02:30;;;;;;;;;;;15.70;99.90;;;;;;4179764;28;19968;-80
2022/08/24 05:04:36;;;;;;;;;;;15.70;99.90;;;;;;4185743;28;20294;-80
2022/08/24 05:06:39;;;;;;;;;;;15.60;99.90;;;;;;4179172;28;20039;-80
2022/08/24 05:08:42;;;;;;;;;;;15.60;99.90;;;;;;4197534;28;20002;-80
2022/08/24 05:10:46;;;;;;;;;;;15.60;99.90;;;;;;4197413;28;19925;-81
2022/08/24 05:12:48;;;;;;;;;;;15.60;99.90;;;;;;4197296;28;19932;-80
2022/08/24 05:14:50;;;;;;;;;;;15.50;99.90;;;;;;4179604;28;19971;-80
2022/08/24 05:16:51;;;;;;;;;;;15.30;99.90;;;;;;4162838;28;19929;-82
2022/08/24 05:18:55;;;;;;;;;;;15.40;99.90;;;;;;4196997;28;19935;-83
2022/08/24 05:20:57;;;;;;;;;;;15.60;99.90;;;;;;4196497;28;20404;-83
2022/08/24 05:23:00;;;;;;;;;;;15.70;99.90;;;;;;4179794;28;20019;-83
2022/08/24 05:25:05;;;;;;;;;;;15.60;99.90;;;;;;4179531;28;19968;-83
2022/08/24 05:27:07;;;;;;;;;;;15.60;99.90;;;;;;4197423;28;19936;-83
2022/08/24 05:29:10;;;;;;;;;;;15.70;99.90;;;;;;4162728;28;19931;-83
2022/08/24 05:31:14;;;;;;;;;;;15.60;99.90;;;;;;4212698;28;19974;-83
2022/08/24 05:33:16;;;;;;;;;;;15.60;99.90;;;;;;4196014;28;20296;-83
2022/08/24 05:35:18;;;;;;;;;;;15.60;99.90;;;;;;4196992;28;19925;-83
2022/08/24 05:37:19;;;;;;;;;;;15.70;99.90;;;;;;4197359;28;20396;-83
2022/08/24 05:39:21;;;;;;;;;;;15.90;99.90;;;;;;4178932;28;19924;-83
2022/08/24 05:41:23;;;;;;;;;;;15.90;99.90;;;;;;4196706;28;19928;-83
2022/08/24 05:43:25;;;;;;;;;;;15.90;99.90;;;;;;4192420;28;19924;-83
2022/08/24 05:45:27;;;;;;;;;;;16.10;99.90;;;;;;4195173;28;19924;-83
2022/08/24 05:47:29;;;;;;;;;;;16.30;99.90;;;;;;4196725;28;19929;-83
2022/08/24 05:49:31;;;;;;;;;;;16.60;99.90;;;;;;4179235;28;19980;-83
2022/08/24 05:51:33;;;;;;;;;;;16.70;99.90;;;;;;4195690;28;19959;-83
2022/08/24 05:53:37;;;;;;;;;;;16.80;99.90;;;;;;4196356;28;20011;-83
2022/08/24 05:55:40;;;;;;;;;;;17.10;99.90;;;;;;4196675;28;20368;-83
2022/08/24 05:57:43;;;;;;;;;;;17.20;99.90;;;;;;4179422;28;19972;-83
2022/08/24 05:59:44;;;;;;;;;;;17.20;99.90;;;;;;4196078;28;20303;-83
2022/08/24 06:01:46;;;;;;;;;;;17.30;99.90;;;;;;4179139;28;19991;-83
2022/08/24 06:03:49;;;;;;;;;;;17.30;99.90;;;;;;4179006;28;19933;-83
2022/08/24 06:05:51;;;;;;;;;;;17.40;99.90;;;;;;4178807;28;20317;-83
2022/08/24 06:07:53;;;;;;;;;;;17.50;99.90;;;;;;4178991;28;19932;-83
2022/08/24 06:09:56;;;;;;;;;;;17.60;99.90;;;;;;4196284;28;19924;-83
2022/08/24 06:12:07;;;;;;;;;;;17.60;99.90;;;;;;4196634;28;19978;-83
2022/08/24 06:14:11;;;;;;;;;;;17.90;99.90;;;;;;4162164;28;20012;-83
2022/08/24 06:16:13;;;;;;;;;;;18.10;99.90;;;;;;4196490;28;20019;-83
2022/08/24 06:18:23;;;;;;;;;;;18.20;99.90;;;;;;4177676;28;19933;-83
2022/08/24 06:20:25;;;;;;;;;;;18.60;99.90;;;;;;4196288;28;20006;-83
2022/08/24 06:22:27;;;;;;;;;;;18.70;99.90;;;;;;4181037;28;19960;-83
2022/08/24 06:29:10;;;;;;;;;;;19.10;99.90;;;;;;4195447;28;19925;-83
2022/08/24 06:31:12;;;;;;;;;;;19.00;99.90;;;;;;4195068;28;20134;-83
2022/08/24 06:33:14;;;;;;;;;;;19.10;99.90;;;;;;4210387;28;19935;-83
2022/08/24 06:35:16;;;;;;;;;;;19.10;99.90;;;;;;4195957;28;20014;-83
2022/08/24 06:37:18;;;;;;;;;;;19.40;99.90;;;;;;4177997;28;20428;-84
2022/08/24 06:39:20;;;;;;;;;;;19.70;99.90;;;;;;4177342;28;19931;-84
2022/08/24 06:41:24;;;;;;;;;;;20.00;99.90;;;;;;4195092;28;19928;-84
2022/08/24 06:43:26;;;;;;;;;;;20.10;99.90;;;;;;4195948;28;19924;-84
2022/08/24 06:45:28;;;;;;;;;;;20.60;99.90;;;;;;4196020;28;20023;-84
2022/08/24 06:47:31;;;;;;;;;;;20.40;99.90;;;;;;4177973;28;19933;-85
2022/08/24 06:49:36;;;;;;;;;;;20.40;99.90;;;;;;4161413;28;19975;-84
2022/08/24 06:51:38;;;;;;;;;;;20.60;99.90;;;;;;4185648;28;19924;-84
2022/08/24 06:53:41;;;;;;;;;;;20.90;99.90;;;;;;4178483;28;19925;-84
2022/08/24 06:55:44;;;;;;;;;;;20.80;99.90;;;;;;4178150;28;19935;-85
2022/08/24 06:57:46;;;;;;;;;;;20.80;99.90;;;;;;4178376;28;19937;-84
2022/08/24 06:59:53;;;;;;;;;;;21.00;99.90;;;;;;4210821;28;19928;-85
2022/08/24 07:01:56;;;;;;;;;;;21.20;99.90;;;;;;4178229;28;20467;-85
2022/08/24 07:03:59;;;;;;;;;;;21.20;99.90;;;;;;4177769;28;19976;-85
2022/08/24 07:06:03;;;;;;;;;;;21.20;99.90;;;;;;4194472;28;19933;-85
2022/08/24 07:08:05;;;;;;;;;;;21.30;99.90;;;;;;4177982;28;19928;-85
2022/08/24 07:10:08;;;;;;;;;;;21.40;99.90;;;;;;4177691;28;19994;-84
2022/08/24 07:12:10;;;;;;;;;;;21.50;99.90;;;;;;4195725;28;19978;-85
2022/08/24 07:14:12;;;;;;;;;;;21.60;99.90;;;;;;4177828;28;19929;-85
2022/08/24 07:16:16;;;;;;;;;;;21.70;99.90;;;;;;4178021;28;20118;-85
2022/08/24 07:18:19;;;;;;;;;;;21.80;99.90;;;;;;4161626;28;19929;-85
2022/08/24 07:20:22;;;;;;;;;;;22.00;99.90;;;;;;4186518;28;19959;-85
2022/08/24 07:22:24;;;;;;;;;;;22.10;99.90;;;;;;4177953;28;20320;-85
2022/08/24 07:24:26;;;;;;;;;;;22.10;99.90;;;;;;4177784;28;19936;-85
2022/08/24 07:26:29;;;;;;;;;;;22.20;99.90;;;;;;4194408;28;19970;-86
2022/08/24 07:28:33;;;;;;;;;;;22.40;99.90;;;;;;4210793;28;19938;-85
2022/08/24 07:30:35;;;;;;;;;;;22.30;99.90;;;;;;4177838;28;19943;-85
2022/08/24 07:32:37;;;;;;;;;;;22.40;99.90;;;;;;4210780;28;19932;-85
2022/08/24 07:34:39;;;;;;;;;;;22.80;99.90;;;;;;4177818;28;19964;-85
2022/08/24 07:36:41;;;;;;;;;;;22.60;99.90;;;;;;4195230;28;19936;-85
2022/08/24 07:38:45;;;;;;;;;;;22.60;99.90;;;;;;4177548;28;19931;-85
2022/08/24 07:40:47;;;;;;;;;;;22.60;99.90;;;;;;4194343;28;19974;-85
2022/08/24 07:43:09;;;;;;;;;;;22.90;99.90;;;;;;4185630;28;20611;-84
2022/08/24 07:45:11;;;;;;;;;;;23.20;99.90;;;;;;4177596;28;19925;-85
2022/08/24 07:47:13;;;;;;;;;;;23.40;99.90;;;;;;4177530;28;19932;-85
2022/08/24 07:49:35;;;;;;;;;;;23.50;99.90;;;;;;4168879;28;19955;-85
2022/08/24 07:51:40;;;;;;;;;;;23.60;99.90;;;;;;4181255;28;19935;-85
2022/08/24 07:53:48;;;;;;;;;;;23.70;99.90;;;;;;4194228;28;19961;-85
2022/08/24 07:55:57;;;;;;;;;;;23.70;99.90;;;;;;4195330;28;20032;-85
2022/08/24 07:57:59;;;;;;;;;;;23.80;99.90;;;;;;4210323;28;19927;-85
2022/08/24 08:00:01;;;;;;;;;;;23.80;99.90;;;;;;4177535;28;20011;-85
2022/08/24 08:02:04;;;;;;;;;;;24.00;99.90;;;;;;4177545;28;19937;-86
2022/08/24 08:04:06;;;;;;;;;;;23.90;99.90;;;;;;4195387;28;19932;-85
2022/08/24 08:06:09;;;;;;;;;;;24.00;99.90;;;;;;4168281;28;19928;-85
2022/08/24 08:08:19;;;;;;;;;;;24.30;99.90;;;;;;4169773;28;19975;-85
2022/08/24 08:10:22;;;;;;;;;;;24.30;99.90;;;;;;4160720;28;20417;-85
2022/08/24 08:12:24;;;;;;;;;;;24.20;99.90;;;;;;4194935;28;19932;-85
2022/08/24 08:14:26;;;;;;;;;;;24.30;99.90;;;;;;4177469;28;19975;-85
2022/08/24 08:16:28;;;;;;;;;;;24.50;99.90;;;;;;4177531;28;19929;-86
2022/08/24 08:18:30;;;;;;;;;;;24.50;99.90;;;;;;4210390;28;20399;-85
2022/08/24 08:20:32;;;;;;;;;;;24.50;99.90;;;;;;4177433;28;19967;-86
2022/08/24 08:24:55;;;;;;;;;;;24.60;99.90;;;;;;4195187;28;20011;-85
2022/08/24 08:26:58;;;;;;;;;;;24.70;99.90;;;;;;4194647;28;19932;-85
2022/08/24 08:29:00;;;;;;;;;;;24.50;99.90;;;;;;4177586;28;19932;-86
2022/08/24 08:31:04;;;;;;;;;;;24.50;99.90;;;;;;4176849;28;20029;-86
2022/08/24 08:33:06;;;;;;;;;;;24.60;99.90;;;;;;4177153;28;19929;-85
2022/08/24 08:35:08;;;;;;;;;;;24.50;99.90;;;;;;4177238;28;19987;-86
2022/08/24 08:37:11;;;;;;;;;;;24.60;99.90;;;;;;4194975;28;20362;-85
2022/08/24 08:39:14;;;;;;;;;;;24.60;99.90;;;;;;4177378;28;19940;-86
2022/08/24 08:41:16;;;;;;;;;;;25.00;99.90;;;;;;4178778;28;19991;-85
2022/08/24 08:43:31;;;;;;;;;;;25.10;99.90;;;;;;4180204;28;20319;-86
2022/08/24 08:45:33;;;;;;;;;;;25.20;99.90;;;;;;4163916;28;19937;-86
2022/08/24 08:47:38;;;;;;;;;;;25.10;99.90;;;;;;4179807;28;19967;-86
2022/08/24 08:49:40;;;;;;;;;;;25.20;99.90;;;;;;4163603;28;20458;-86
2022/08/24 08:51:45;;;;;;;;;;;25.40;99.90;;;;;;4197781;28;19929;-85
2022/08/24 08:54:07;;;;;;;;;;;25.50;99.90;;;;;;4179748;28;19931;-86
2022/08/24 08:56:11;;;;;;;;;;;25.40;99.90;;;;;;4197888;28;19934;-85
2022/08/24 08:58:33;;;;;;;;;;;25.40;99.90;;;;;;4180137;28;19940;-86
2022/08/24 09:00:55;;;;;;;;;;;25.50;99.90;;;;;;4180451;28;20019;-86
2022/08/24 09:03:07;;;;;;;;;;;25.40;99.90;;;;;;4159351;28;19967;-86
2022/08/24 09:05:10;;;;;;;;;;;25.40;99.90;;;;;;4179882;28;19956;-86
2022/08/24 09:07:22;;;;;;;;;;;25.30;99.90;;;;;;4180269;28;19935;-86
2022/08/24 09:09:42;;;;;;;;;;;25.40;99.90;;;;;;4198329;28;19985;-85
2022/08/24 09:12:08;;;;;;;;;;;25.40;99.90;;;;;;4182026;28;19933;-86
2022/08/24 09:14:10;;;;;;;;;;;25.50;99.90;;;;;;4189981;28;20015;-85
2022/08/24 09:16:12;;;;;;;;;;;25.70;99.90;;;;;;4179746;28;20016;-86
2022/08/24 09:18:40;;;;;;;;;;;25.80;99.80;;;;;;4196709;28;19939;-86
2022/08/24 09:20:45;;;;;;;;;;;26.00;99.90;;;;;;4164067;28;19952;-85
2022/08/24 09:22:52;;;;;;;;;;;25.90;99.40;;;;;;4196857;28;19928;-85
2022/08/24 09:24:54;;;;;;;;;;;26.00;99.90;;;;;;4162787;28;20025;-85
2022/08/24 09:27:23;;;;;;;;;;;26.10;99.90;;;;;;4179699;28;19925;-86
2022/08/24 09:29:39;;;;;;;;;;;26.50;99.50;;;;;;4176669;28;19928;-86
2022/08/24 09:31:48;;;;;;;;;;;26.30;98.90;;;;;;4192509;28;19931;-86
2022/08/24 09:34:14;;;;;;;;;;;26.20;99.40;;;;;;4182304;28;19928;-86
2022/08/24 09:36:34;;;;;;;;;;;26.30;99.90;;;;;;4143669;28;19929;-86
2022/08/24 09:38:48;;;;;;;;;;;26.30;98.90;;;;;;4196081;28;19980;-85
2022/08/24 09:40:56;;;;;;;;;;;26.50;99.90;;;;;;4179332;28;20408;-86
2022/08/24 09:42:58;;;;;;;;;;;26.60;99.30;;;;;;4179515;28;19928;-87
2022/08/24 09:45:12;;;;;;;;;;;26.60;99.90;;;;;;4197217;28;19928;-86
2022/08/24 09:47:15;;;;;;;;;;;26.70;98.90;;;;;;4178797;28;20384;-86
2022/08/24 09:49:17;;;;;;;;;;;26.50;98.90;;;;;;4199550;28;19931;-86
2022/08/24 09:51:37;;;;;;;;;;;26.80;98.30;;;;;;4187733;28;19928;-86
2022/08/24 09:53:55;;;;;;;;;;;27.00;99.10;;;;;;4179174;28;19935;-86
2022/08/24 09:56:17;;;;;;;;;;;27.10;98.80;;;;;;4197042;28;19932;-87
2022/08/24 09:58:37;;;;;;;;;;;27.00;99.70;;;;;;4174702;28;20307;-85
2022/08/24 10:00:44;;;;;;;;;;;27.20;99.90;;;;;;4175465;28;19936;-86
2022/08/24 10:02:51;;;;;;;;;;;27.30;98.90;;;;;;4183714;28;19933;-87
2022/08/24 10:05:15;;;;;;;;;;;27.00;98.90;;;;;;4182228;28;19925;-87
2022/08/24 10:07:17;;;;;;;;;;;26.80;99.20;;;;;;4178360;28;20319;-88
2022/08/24 10:09:25;;;;;;;;;;;26.70;99.20;;;;;;4180492;28;19929;-86
2022/08/24 10:11:50;;;;;;;;;;;26.30;99.40;;;;;;4179172;28;19983;-86
2022/08/24 10:14:11;;;;;;;;;;;26.00;99.60;;;;;;4180918;28;19931;-86
2022/08/24 10:16:22;;;;;;;;;;;26.10;99.70;;;;;;4176257;28;19937;-85
2022/08/24 10:18:36;;;;;;;;;;;25.90;99.70;;;;;;4206417;28;20011;-85
2022/08/24 10:20:57;;;;;;;;;;;26.00;99.80;;;;;;4201625;28;19933;-85
2022/08/24 10:23:19;;;;;;;;;;;26.00;99.30;;;;;;4196883;28;19928;-86
2022/08/24 10:25:37;;;;;;;;;;;26.20;99.70;;;;;;4196307;28;20035;-85
2022/08/24 10:27:39;;;;;;;;;;;26.30;99.40;;;;;;4178008;28;19936;-85
2022/08/24 10:30:01;;;;;;;;;;;26.20;98.80;;;;;;4189636;28;19925;-85
2022/08/24 10:32:33;;;;;;;;;;;25.60;98.40;;;;;;4173300;28;20316;-85
2022/08/24 10:34:35;;;;;;;;;;;25.40;99.10;;;;;;4209665;28;19994;-85
2022/08/24 10:36:43;;;;;;;;;;;25.50;98.90;;;;;;4189316;28;19924;-86
2022/08/24 10:41:22;;;;;;;;;;;25.70;99.90;;;;;;4196173;28;20011;-86
2022/08/24 10:43:45;;;;;;;;;;;26.00;99.70;;;;;;4178867;28;19924;-86
2022/08/24 10:45:51;;;;;;;;;;;25.80;99.00;;;;;;4193919;28;19924;-85
2022/08/24 10:48:03;;;;;;;;;;;25.70;99.90;;;;;;4196013;28;19924;-85
2022/08/24 10:50:30;;;;;;;;;;;25.60;99.60;;;;;;4177825;28;20554;-86
2022/08/24 10:52:38;;;;;;;;;;;25.70;99.90;;;;;;4161262;28;20405;-86
2022/08/24 10:54:40;;;;;;;;;;;26.20;99.90;;;;;;4176518;28;20328;-86
2022/08/24 10:56:48;;;;;;;;;;;26.30;99.90;;;;;;4184665;28;19925;-86
2022/08/24 10:59:02;;;;;;;;;;;26.20;99.40;;;;;;4179835;28;20282;-85
2022/08/24 11:01:23;;;;;;;;;;;26.50;99.90;;;;;;4174613;28;19993;-86
2022/08/24 11:03:26;;;;;;;;;;;26.80;99.20;;;;;;4178069;28;19939;-85
2022/08/24 11:05:34;;;;;;;;;;;26.90;99.90;;;;;;4196302;28;20539;-86
2022/08/24 11:07:51;;;;;;;;;;;27.10;98.90;;;;;;4195043;28;19925;-86
2022/08/24 11:09:55;;;;;;;;;;;27.00;98.50;;;;;;4195787;28;20411;-86
2022/08/24 11:12:15;;;;;;;;;;;27.10;98.20;;;;;;4178358;28;19929;-86
2022/08/24 11:14:25;;;;;;;;;;;27.20;98.40;;;;;;4183172;28;20397;-86
2022/08/24 11:16:34;;;;;;;;;;;27.30;98.80;;;;;;4177783;28;19933;-86
2022/08/24 11:18:48;;;;;;;;;;;27.20;97.50;;;;;;4162002;28;19959;-86
2022/08/24 11:20:52;;;;;;;;;;;27.20;97.10;;;;;;4161766;28;19929;-86
2022/08/24 11:23:01;;;;;;;;;;;26.90;97.60;;;;;;4169504;28;20014;-85
2022/08/24 11:25:09;;;;;;;;;;;26.80;97.30;;;;;;4196083;28;19970;-86
2022/08/24 11:27:14;;;;;;;;;;;26.90;96.90;;;;;;4178243;28;19974;-85
2022/08/24 11:29:17;;;;;;;;;;;27.00;98.00;;;;;;4194500;28;19928;-86
2022/08/24 11:31:26;;;;;;;;;;;27.40;97.60;;;;;;4177033;28;19925;-86
2022/08/24 11:33:30;;;;;;;;;;;27.60;96.60;;;;;;4175645;28;19974;-86
2022/08/24 11:35:32;;;;;;;;;;;28.00;97.30;;;;;;4187944;28;19960;-86
2022/08/24 11:37:38;;;;;;;;;;;28.20;97.00;;;;;;4202622;28;19924;-86
2022/08/24 11:39:40;;;;;;;;;;;28.10;96.80;;;;;;4193471;28;19990;-78
2022/08/24 11:41:51;;;;;;;;;;;27.60;96.20;;;;;;4195671;28;20342;-77
2022/08/24 11:44:21;;;;;;;;;;;27.70;97.60;;;;;;4177512;28;19925;-77
2022/08/24 11:46:40;;;;;;;;;;;28.10;96.90;;;;;;4178902;28;20335;-78
2022/08/24 11:49:01;;;;;;;;;;;27.60;97.10;;;;;;4189655;28;19966;-77
2022/08/24 11:51:11;;;;;;;;;;;27.00;97.40;;;;;;4177355;28;19929;-78
2022/08/24 11:53:27;;;;;;;;;;;27.00;97.50;;;;;;4195375;28;19935;-78
2022/08/24 11:55:33;;;;;;;;;;;26.90;97.60;;;;;;4177481;28;19929;-77
2022/08/24 11:58:03;;;;;;;;;;;27.10;97.30;;;;;;4195470;28;19928;-77
2022/08/24 12:00:07;;;;;;;;;;;27.20;97.00;;;;;;4177689;28;19932;-77
2022/08/24 12:02:21;;;;;;;;;;;27.20;97.00;;;;;;4161134;28;19929;-77
2022/08/24 12:04:41;;;;;;;;;;;27.30;97.60;;;;;;4187363;28;20041;-78
2022/08/24 12:06:42;;;;;;;;;;;27.60;97.20;;;;;;4177034;28;19925;-77
2022/08/24 12:08:50;;;;;;;;;;;27.60;97.50;;;;;;4161105;28;19933;-77
2022/08/24 12:10:51;;;;;;;;;;;27.40;96.20;;;;;;4194971;28;20015;-77
2022/08/24 12:12:56;;;;;;;;;;;27.50;97.00;;;;;;4176988;28;20011;-78
2022/08/24 12:15:01;;;;;;;;;;;27.70;97.00;;;;;;4194142;28;20315;-78
2022/08/24 12:17:06;;;;;;;;;;;27.60;96.40;;;;;;4197710;28;19925;-77
2022/08/24 12:19:11;;;;;;;;;;;27.50;96.60;;;;;;4164210;28;19929;-77
2022/08/24 12:21:18;;;;;;;;;;;27.70;96.90;;;;;;4197985;28;19929;-77